sensor_id;sensor_type;location;lat;lon;timestamp;temperature;humidity
46732;DHT22;32477;51.474;5.696;2023-06-26T00:00:19;22.00;99.90
46732;DHT22;32477;51.474;5.696;2023-06-26T00:02:45;22.00;99.90
46732;DHT22;32477;51.474;5.696;2023-06-26T00:05:11;22.10;99.90
46732;DHT22;32477;51.474;5.696;2023-06-26T00:07:37;22.10;99.90
46732;DHT22;32477;51.474;5.696;2023-06-26T00:10:03;22.10;99.90
46732;DHT22;32477;51.474;5.696;2023-06-26T00:12:30;22.20;99.90
46732;DHT22;32477;51.474;5.696;2023-06-26T00:14:56;22.20;99.90
46732;DHT22;32477;51.474;5.696;2023-06-26T00:17:22;22.10;99.90
46732;DHT22;32477;51.474;5.696;2023-06-26T00:19:48;22.20;99.90
46732;DHT22;32477;51.474;5.696;2023-06-26T00:22:14;22.20;99.90
46732;DHT22;32477;51.474;5.696;2023-06-26T00:24:39;22.20;99.90
46732;DHT22;32477;51.474;5.696;2023-06-26T00:27:05;22.20;99.90
46732;DHT22;32477;51.474;5.696;2023-06-26T00:29:31;22.30;99.90
46732;DHT22;32477;51.474;5.696;2023-06-26T00:31:57;22.30;99.90
46732;DHT22;32477;51.474;5.696;2023-06-26T00:34:24;22.20;99.90
46732;DHT22;32477;51.474;5.696;2023-06-26T00:36:50;22.30;99.90
46732;DHT22;32477;51.474;5.696;2023-06-26T00:39:15;22.20;99.90
46732;DHT22;32477;51.474;5.696;2023-06-26T00:41:41;22.20;99.90
46732;DHT22;32477;51.474;5.696;2023-06-26T00:44:07;22.30;99.90
46732;DHT22;32477;51.474;5.696;2023-06-26T00:46:33;22.30;99.90
46732;DHT22;32477;51.474;5.696;2023-06-26T00:49:00;22.30;99.90
46732;DHT22;32477;51.474;5.696;2023-06-26T00:51:28;22.20;99.90
46732;DHT22;32477;51.474;5.696;2023-06-26T00:53:54;22.10;99.90
46732;DHT22;32477;51.474;5.696;2023-06-26T00:56:21;22.00;99.90
46732;DHT22;32477;51.474;5.696;2023-06-26T00:58:47;21.90;99.90
46732;DHT22;32477;51.474;5.696;2023-06-26T01:01:13;21.90;99.90
46732;DHT22;32477;51.474;5.696;2023-06-26T01:03:46;21.80;99.90
46732;DHT22;32477;51.474;5.696;2023-06-26T01:06:17;21.70;99.90
46732;DHT22;32477;51.474;5.696;2023-06-26T01:08:44;21.60;99.90
46732;DHT22;32477;51.474;5.696;2023-06-26T01:11:11;21.60;99.90
46732;DHT22;32477;51.474;5.696;2023-06-26T01:13:36;21.50;99.90
46732;DHT22;32477;51.474;5.696;2023-06-26T01:16:03;21.50;99.90
46732;DHT22;32477;51.474;5.696;2023-06-26T01:18:31;21.60;99.90
46732;DHT22;32477;51.474;5.696;2023-06-26T01:20:58;21.60;99.90
46732;DHT22;32477;51.474;5.696;2023-06-26T01:23:31;21.60;99.90
46732;DHT22;32477;51.474;5.696;2023-06-26T01:28:41;21.60;99.90
46732;DHT22;32477;51.474;5.696;2023-06-26T01:31:07;21.70;99.90
46732;DHT22;32477;51.474;5.696;2023-06-26T01:33:34;21.80;99.90
46732;DHT22;32477;51.474;5.696;2023-06-26T01:36:01;21.90;99.90
46732;DHT22;32477;51.474;5.696;2023-06-26T01:38:27;22.00;99.90
46732;DHT22;32477;51.474;5.696;2023-06-26T01:40:53;22.00;99.90
46732;DHT22;32477;51.474;5.696;2023-06-26T01:46:07;22.10;99.90
46732;DHT22;32477;51.474;5.696;2023-06-26T01:48:44;22.10;99.90
46732;DHT22;32477;51.474;5.696;2023-06-26T01:51:12;22.10;99.90
46732;DHT22;32477;51.474;5.696;2023-06-26T01:53:46;22.00;99.90
46732;DHT22;32477;51.474;5.696;2023-06-26T01:56:14;22.00;99.90
46732;DHT22;32477;51.474;5.696;2023-06-26T01:58:45;21.90;99.90
46732;DHT22;32477;51.474;5.696;2023-06-26T02:01:12;21.90;99.90
46732;DHT22;32477;51.474;5.696;2023-06-26T02:03:38;21.80;99.90
46732;DHT22;32477;51.474;5.696;2023-06-26T02:06:03;21.80;99.90
46732;DHT22;32477;51.474;5.696;2023-06-26T02:08:29;21.70;99.90
46732;DHT22;32477;51.474;5.696;2023-06-26T02:10:54;21.70;99.90
46732;DHT22;32477;51.474;5.696;2023-06-26T02:13:20;21.60;99.90
46732;DHT22;32477;51.474;5.696;2023-06-26T02:15:46;21.60;99.90
46732;DHT22;32477;51.474;5.696;2023-06-26T02:18:12;21.50;99.90
46732;DHT22;32477;51.474;5.696;2023-06-26T02:20:37;21.40;99.90
46732;DHT22;32477;51.474;5.696;2023-06-26T02:23:03;21.40;99.90
46732;DHT22;32477;51.474;5.696;2023-06-26T02:25:28;21.40;99.90
46732;DHT22;32477;51.474;5.696;2023-06-26T02:27:54;21.30;99.90
46732;DHT22;32477;51.474;5.696;2023-06-26T02:30:20;21.30;99.90
46732;DHT22;32477;51.474;5.696;2023-06-26T02:32:46;21.30;99.90
46732;DHT22;32477;51.474;5.696;2023-06-26T02:35:11;21.20;99.90
46732;DHT22;32477;51.474;5.696;2023-06-26T02:37:37;21.10;99.90
46732;DHT22;32477;51.474;5.696;2023-06-26T02:40:03;21.10;99.90
46732;DHT22;32477;51.474;5.696;2023-06-26T02:42:30;21.00;99.90
46732;DHT22;32477;51.474;5.696;2023-06-26T02:44:56;20.90;99.90
46732;DHT22;32477;51.474;5.696;2023-06-26T02:47:22;20.90;99.90
46732;DHT22;32477;51.474;5.696;2023-06-26T02:49:48;20.80;99.90
46732;DHT22;32477;51.474;5.696;2023-06-26T02:52:13;20.80;99.90
46732;DHT22;32477;51.474;5.696;2023-06-26T02:54:39;20.70;99.90
46732;DHT22;32477;51.474;5.696;2023-06-26T02:57:05;20.70;99.90
46732;DHT22;32477;51.474;5.696;2023-06-26T02:59:30;20.60;99.90
46732;DHT22;32477;51.474;5.696;2023-06-26T03:01:56;20.60;99.90
46732;DHT22;32477;51.474;5.696;2023-06-26T03:04:22;20.60;99.90
46732;DHT22;32477;51.474;5.696;2023-06-26T03:06:47;20.60;99.90
46732;DHT22;32477;51.474;5.696;2023-06-26T03:09:13;20.60;99.90
46732;DHT22;32477;51.474;5.696;2023-06-26T03:11:39;20.60;99.90
46732;DHT22;32477;51.474;5.696;2023-06-26T03:14:04;20.70;99.90
46732;DHT22;32477;51.474;5.696;2023-06-26T03:16:30;20.70;99.90
46732;DHT22;32477;51.474;5.696;2023-06-26T03:18:55;20.80;99.90
46732;DHT22;32477;51.474;5.696;2023-06-26T03:21:21;20.80;99.90
46732;DHT22;32477;51.474;5.696;2023-06-26T03:23:47;20.80;99.90
46732;DHT22;32477;51.474;5.696;2023-06-26T03:26:12;20.70;99.90
46732;DHT22;32477;51.474;5.696;2023-06-26T03:28:40;20.70;99.90
46732;DHT22;32477;51.474;5.696;2023-06-26T03:31:06;20.60;99.90
46732;DHT22;32477;51.474;5.696;2023-06-26T03:33:31;20.60;99.90
46732;DHT22;32477;51.474;5.696;2023-06-26T03:35:57;20.50;99.90
46732;DHT22;32477;51.474;5.696;2023-06-26T03:38:24;20.50;99.90
46732;DHT22;32477;51.474;5.696;2023-06-26T03:40:51;20.50;99.90
46732;DHT22;32477;51.474;5.696;2023-06-26T03:43:17;20.60;99.90
46732;DHT22;32477;51.474;5.696;2023-06-26T03:45:43;20.50;99.90
46732;DHT22;32477;51.474;5.696;2023-06-26T03:48:08;20.50;99.90
46732;DHT22;32477;51.474;5.696;2023-06-26T03:50:34;20.40;99.90
46732;DHT22;32477;51.474;5.696;2023-06-26T03:53:00;20.40;99.90
46732;DHT22;32477;51.474;5.696;2023-06-26T03:55:25;20.40;99.90
46732;DHT22;32477;51.474;5.696;2023-06-26T03:57:51;20.40;99.90
46732;DHT22;32477;51.474;5.696;2023-06-26T04:00:17;20.30;99.90
46732;DHT22;32477;51.474;5.696;2023-06-26T04:02:43;20.30;99.90
46732;DHT22;32477;51.474;5.696;2023-06-26T04:05:08;20.30;99.90
46732;DHT22;32477;51.474;5.696;2023-06-26T04:07:34;20.20;99.90
46732;DHT22;32477;51.474;5.696;2023-06-26T04:10:01;20.20;99.90
46732;DHT22;32477;51.474;5.696;2023-06-26T04:12:27;20.10;99.90
46732;DHT22;32477;51.474;5.696;2023-06-26T04:14:52;20.10;99.90
46732;DHT22;32477;51.474;5.696;2023-06-26T04:17:18;20.10;99.90
46732;DHT22;32477;51.474;5.696;2023-06-26T04:19:44;20.00;99.90
46732;DHT22;32477;51.474;5.696;2023-06-26T04:22:09;20.00;99.90
46732;DHT22;32477;51.474;5.696;2023-06-26T04:24:35;20.00;99.90
46732;DHT22;32477;51.474;5.696;2023-06-26T04:27:01;19.90;99.90
46732;DHT22;32477;51.474;5.696;2023-06-26T04:29:27;20.00;99.90
46732;DHT22;32477;51.474;5.696;2023-06-26T04:31:53;20.00;99.90
46732;DHT22;32477;51.474;5.696;2023-06-26T04:34:27;20.00;99.90
46732;DHT22;32477;51.474;5.696;2023-06-26T04:36:53;20.10;99.90
46732;DHT22;32477;51.474;5.696;2023-06-26T04:39:19;20.20;99.90
46732;DHT22;32477;51.474;5.696;2023-06-26T04:41:45;20.30;99.90
46732;DHT22;32477;51.474;5.696;2023-06-26T04:44:11;20.40;99.90
46732;DHT22;32477;51.474;5.696;2023-06-26T04:46:40;20.50;99.90
46732;DHT22;32477;51.474;5.696;2023-06-26T04:49:07;20.50;99.90
46732;DHT22;32477;51.474;5.696;2023-06-26T04:51:33;20.50;99.90
46732;DHT22;32477;51.474;5.696;2023-06-26T04:53:58;20.40;99.90
46732;DHT22;32477;51.474;5.696;2023-06-26T04:56:24;20.40;99.90
46732;DHT22;32477;51.474;5.696;2023-06-26T04:58:49;20.40;99.90
46732;DHT22;32477;51.474;5.696;2023-06-26T05:01:15;20.40;99.90
46732;DHT22;32477;51.474;5.696;2023-06-26T05:03:41;20.40;99.90
46732;DHT22;32477;51.474;5.696;2023-06-26T05:06:06;20.50;99.90
46732;DHT22;32477;51.474;5.696;2023-06-26T05:08:32;20.60;99.90
46732;DHT22;32477;51.474;5.696;2023-06-26T05:10:58;20.70;99.90
46732;DHT22;32477;51.474;5.696;2023-06-26T05:13:26;20.80;99.90
46732;DHT22;32477;51.474;5.696;2023-06-26T05:15:52;20.90;99.90
46732;DHT22;32477;51.474;5.696;2023-06-26T05:18:18;21.00;99.90
46732;DHT22;32477;51.474;5.696;2023-06-26T05:20:44;21.10;99.90
46732;DHT22;32477;51.474;5.696;2023-06-26T05:23:13;21.20;99.90
46732;DHT22;32477;51.474;5.696;2023-06-26T05:25:41;21.20;99.90
46732;DHT22;32477;51.474;5.696;2023-06-26T05:28:07;21.10;99.90
46732;DHT22;32477;51.474;5.696;2023-06-26T05:30:35;21.10;99.90
46732;DHT22;32477;51.474;5.696;2023-06-26T05:33:02;21.10;99.90
46732;DHT22;32477;51.474;5.696;2023-06-26T05:35:31;21.20;99.90
46732;DHT22;32477;51.474;5.696;2023-06-26T05:37:57;21.30;99.90
46732;DHT22;32477;51.474;5.696;2023-06-26T05:40:24;21.20;99.90
46732;DHT22;32477;51.474;5.696;2023-06-26T05:42:50;21.20;99.90
46732;DHT22;32477;51.474;5.696;2023-06-26T05:45:16;21.30;99.90
46732;DHT22;32477;51.474;5.696;2023-06-26T05:47:42;21.60;99.90
46732;DHT22;32477;51.474;5.696;2023-06-26T05:50:09;21.90;99.90
46732;DHT22;32477;51.474;5.696;2023-06-26T05:52:35;22.20;99.90
46732;DHT22;32477;51.474;5.696;2023-06-26T05:55:02;22.10;99.90
46732;DHT22;32477;51.474;5.696;2023-06-26T05:57:29;22.00;99.90
46732;DHT22;32477;51.474;5.696;2023-06-26T05:59:56;21.70;99.90
46732;DHT22;32477;51.474;5.696;2023-06-26T06:02:21;22.00;99.90
46732;DHT22;32477;51.474;5.696;2023-06-26T06:04:47;22.40;99.90
46732;DHT22;32477;51.474;5.696;2023-06-26T06:07:13;22.50;99.90
46732;DHT22;32477;51.474;5.696;2023-06-26T06:09:39;22.60;99.90
46732;DHT22;32477;51.474;5.696;2023-06-26T06:12:08;22.80;99.90
46732;DHT22;32477;51.474;5.696;2023-06-26T06:14:34;23.00;99.90
46732;DHT22;32477;51.474;5.696;2023-06-26T06:17:00;23.40;99.90
46732;DHT22;32477;51.474;5.696;2023-06-26T06:19:26;23.60;99.90
46732;DHT22;32477;51.474;5.696;2023-06-26T06:21:52;23.70;99.90
46732;DHT22;32477;51.474;5.696;2023-06-26T06:24:17;23.70;99.90
46732;DHT22;32477;51.474;5.696;2023-06-26T06:26:43;23.80;99.90
46732;DHT22;32477;51.474;5.696;2023-06-26T06:29:09;24.00;99.90
46732;DHT22;32477;51.474;5.696;2023-06-26T06:31:34;24.20;99.90
46732;DHT22;32477;51.474;5.696;2023-06-26T06:34:00;24.30;99.90
46732;DHT22;32477;51.474;5.696;2023-06-26T06:36:26;24.00;99.90
46732;DHT22;32477;51.474;5.696;2023-06-26T06:38:51;24.20;99.90
46732;DHT22;32477;51.474;5.696;2023-06-26T06:41:17;24.40;99.90
46732;DHT22;32477;51.474;5.696;2023-06-26T06:43:43;24.30;99.90
46732;DHT22;32477;51.474;5.696;2023-06-26T06:46:09;24.40;99.90
46732;DHT22;32477;51.474;5.696;2023-06-26T06:48:34;24.80;99.90
46732;DHT22;32477;51.474;5.696;2023-06-26T06:51:00;24.80;99.90
46732;DHT22;32477;51.474;5.696;2023-06-26T06:53:26;25.00;99.90
46732;DHT22;32477;51.474;5.696;2023-06-26T06:55:52;25.20;99.90
46732;DHT22;32477;51.474;5.696;2023-06-26T06:58:17;25.40;99.90
46732;DHT22;32477;51.474;5.696;2023-06-26T07:00:44;25.70;99.90
46732;DHT22;32477;51.474;5.696;2023-06-26T07:03:10;25.70;99.90
46732;DHT22;32477;51.474;5.696;2023-06-26T07:05:36;25.70;99.90
46732;DHT22;32477;51.474;5.696;2023-06-26T07:08:02;25.50;99.90
46732;DHT22;32477;51.474;5.696;2023-06-26T07:10:28;25.40;99.90
46732;DHT22;32477;51.474;5.696;2023-06-26T07:12:54;25.30;99.90
46732;DHT22;32477;51.474;5.696;2023-06-26T07:15:20;25.70;99.90
46732;DHT22;32477;51.474;5.696;2023-06-26T07:17:46;26.10;99.90
46732;DHT22;32477;51.474;5.696;2023-06-26T07:20:11;25.90;99.90
46732;DHT22;32477;51.474;5.696;2023-06-26T07:22:41;25.60;99.90
46732;DHT22;32477;51.474;5.696;2023-06-26T07:25:07;25.50;99.90
46732;DHT22;32477;51.474;5.696;2023-06-26T07:27:40;25.20;99.90
46732;DHT22;32477;51.474;5.696;2023-06-26T07:30:06;25.00;99.90
46732;DHT22;32477;51.474;5.696;2023-06-26T07:32:34;24.90;99.90
46732;DHT22;32477;51.474;5.696;2023-06-26T07:35:00;25.10;99.90
46732;DHT22;32477;51.474;5.696;2023-06-26T07:37:26;25.20;99.90
46732;DHT22;32477;51.474;5.696;2023-06-26T07:39:51;25.50;99.90
46732;DHT22;32477;51.474;5.696;2023-06-26T07:42:17;25.20;99.90
46732;DHT22;32477;51.474;5.696;2023-06-26T07:44:43;25.10;99.90
46732;DHT22;32477;51.474;5.696;2023-06-26T07:47:09;24.70;99.90
46732;DHT22;32477;51.474;5.696;2023-06-26T07:49:35;24.30;99.90
46732;DHT22;32477;51.474;5.696;2023-06-26T07:52:01;24.10;99.90
46732;DHT22;32477;51.474;5.696;2023-06-26T07:54:26;24.10;99.90
46732;DHT22;32477;51.474;5.696;2023-06-26T07:56:54;24.30;99.90
46732;DHT22;32477;51.474;5.696;2023-06-26T07:59:20;24.20;99.90
46732;DHT22;32477;51.474;5.696;2023-06-26T08:01:47;24.90;99.90
46732;DHT22;32477;51.474;5.696;2023-06-26T08:04:13;25.50;99.90
46732;DHT22;32477;51.474;5.696;2023-06-26T08:06:39;25.50;99.90
46732;DHT22;32477;51.474;5.696;2023-06-26T08:09:07;25.20;99.90
46732;DHT22;32477;51.474;5.696;2023-06-26T08:11:36;24.70;99.90
46732;DHT22;32477;51.474;5.696;2023-06-26T08:14:02;24.80;99.90
46732;DHT22;32477;51.474;5.696;2023-06-26T08:16:27;25.70;99.90
46732;DHT22;32477;51.474;5.696;2023-06-26T08:18:53;26.10;99.90
46732;DHT22;32477;51.474;5.696;2023-06-26T08:21:18;26.60;99.90
46732;DHT22;32477;51.474;5.696;2023-06-26T08:23:44;26.90;99.90
46732;DHT22;32477;51.474;5.696;2023-06-26T08:26:10;26.70;99.90
46732;DHT22;32477;51.474;5.696;2023-06-26T08:28:35;26.10;99.90
46732;DHT22;32477;51.474;5.696;2023-06-26T08:31:01;25.20;99.90
46732;DHT22;32477;51.474;5.696;2023-06-26T08:33:26;25.70;99.90
46732;DHT22;32477;51.474;5.696;2023-06-26T08:35:52;25.80;99.90
46732;DHT22;32477;51.474;5.696;2023-06-26T08:38:18;25.80;99.90
46732;DHT22;32477;51.474;5.696;2023-06-26T08:40:46;25.90;99.90
46732;DHT22;32477;51.474;5.696;2023-06-26T08:43:12;26.50;99.20
46732;DHT22;32477;51.474;5.696;2023-06-26T08:45:38;26.70;98.90
46732;DHT22;32477;51.474;5.696;2023-06-26T08:48:07;27.70;97.50
46732;DHT22;32477;51.474;5.696;2023-06-26T08:50:34;28.20;95.80
46732;DHT22;32477;51.474;5.696;2023-06-26T08:55:31;29.60;93.10
46732;DHT22;32477;51.474;5.696;2023-06-26T08:58:00;29.20;91.50
46732;DHT22;32477;51.474;5.696;2023-06-26T09:00:27;29.10;90.90
46732;DHT22;32477;51.474;5.696;2023-06-26T09:02:53;28.80;90.80
46732;DHT22;32477;51.474;5.696;2023-06-26T09:05:19;28.70;90.70
46732;DHT22;32477;51.474;5.696;2023-06-26T09:07:45;28.70;90.60
46732;DHT22;32477;51.474;5.696;2023-06-26T09:10:10;28.20;90.60
46732;DHT22;32477;51.474;5.696;2023-06-26T09:12:37;28.40;90.40
46732;DHT22;32477;51.474;5.696;2023-06-26T09:15:04;28.80;90.40
46732;DHT22;32477;51.474;5.696;2023-06-26T09:17:32;29.50;89.80
46732;DHT22;32477;51.474;5.696;2023-06-26T09:19:58;29.50;89.10
46732;DHT22;32477;51.474;5.696;2023-06-26T09:22:24;29.00;89.70
46732;DHT22;32477;51.474;5.696;2023-06-26T09:24:50;29.20;89.20
46732;DHT22;32477;51.474;5.696;2023-06-26T09:27:17;29.90;88.40
46732;DHT22;32477;51.474;5.696;2023-06-26T09:29:45;29.70;88.40
46732;DHT22;32477;51.474;5.696;2023-06-26T09:32:13;30.40;87.60
46732;DHT22;32477;51.474;5.696;2023-06-26T09:34:41;30.50;86.10
46732;DHT22;32477;51.474;5.696;2023-06-26T09:37:07;30.00;84.30
46732;DHT22;32477;51.474;5.696;2023-06-26T09:39:33;28.40;85.50
46732;DHT22;32477;51.474;5.696;2023-06-26T09:41:59;27.80;86.20
46732;DHT22;32477;51.474;5.696;2023-06-26T09:44:25;28.10;86.80
46732;DHT22;32477;51.474;5.696;2023-06-26T09:46:50;28.20;86.40
46732;DHT22;32477;51.474;5.696;2023-06-26T09:49:16;27.80;87.90
46732;DHT22;32477;51.474;5.696;2023-06-26T09:51:42;28.20;87.20
46732;DHT22;32477;51.474;5.696;2023-06-26T09:54:08;27.10;87.70
46732;DHT22;32477;51.474;5.696;2023-06-26T09:56:37;26.70;90.10
46732;DHT22;32477;51.474;5.696;2023-06-26T09:59:05;25.90;90.90
46732;DHT22;32477;51.474;5.696;2023-06-26T10:01:40;25.60;91.80
46732;DHT22;32477;51.474;5.696;2023-06-26T10:04:06;26.90;90.80
46732;DHT22;32477;51.474;5.696;2023-06-26T10:06:35;27.30;84.50
46732;DHT22;32477;51.474;5.696;2023-06-26T10:09:03;28.20;83.70
46732;DHT22;32477;51.474;5.696;2023-06-26T10:11:40;29.00;79.60
46732;DHT22;32477;51.474;5.696;2023-06-26T10:14:09;30.00;80.50
46732;DHT22;32477;51.474;5.696;2023-06-26T10:16:37;30.20;79.80
46732;DHT22;32477;51.474;5.696;2023-06-26T10:19:06;29.90;80.40
46732;DHT22;32477;51.474;5.696;2023-06-26T10:21:34;28.90;81.90
46732;DHT22;32477;51.474;5.696;2023-06-26T10:24:03;28.80;81.60
46732;DHT22;32477;51.474;5.696;2023-06-26T10:26:31;27.90;82.80
46732;DHT22;32477;51.474;5.696;2023-06-26T10:28:57;27.80;84.20
46732;DHT22;32477;51.474;5.696;2023-06-26T10:31:25;27.30;84.80
46732;DHT22;32477;51.474;5.696;2023-06-26T10:33:52;26.70;82.90
46732;DHT22;32477;51.474;5.696;2023-06-26T10:36:20;27.70;80.40
46732;DHT22;32477;51.474;5.696;2023-06-26T10:38:54;28.70;80.40
46732;DHT22;32477;51.474;5.696;2023-06-26T10:41:22;29.40;78.30
46732;DHT22;32477;51.474;5.696;2023-06-26T10:44:05;30.20;76.80
46732;DHT22;32477;51.474;5.696;2023-06-26T10:46:51;30.40;77.30
46732;DHT22;32477;51.474;5.696;2023-06-26T10:49:19;31.10;76.00
46732;DHT22;32477;51.474;5.696;2023-06-26T10:51:49;30.80;73.90
46732;DHT22;32477;51.474;5.696;2023-06-26T10:54:16;31.00;74.50
46732;DHT22;32477;51.474;5.696;2023-06-26T10:59:19;31.20;71.00
46732;DHT22;32477;51.474;5.696;2023-06-26T11:02:05;30.50;70.40
46732;DHT22;32477;51.474;5.696;2023-06-26T11:04:44;30.90;71.30
46732;DHT22;32477;51.474;5.696;2023-06-26T11:07:23;31.00;71.50
46732;DHT22;32477;51.474;5.696;2023-06-26T11:12:36;30.20;72.90
46732;DHT22;32477;51.474;5.696;2023-06-26T11:15:12;30.20;72.90
46732;DHT22;32477;51.474;5.696;2023-06-26T11:17:39;29.60;73.80
46732;DHT22;32477;51.474;5.696;2023-06-26T11:20:10;30.50;74.20
46732;DHT22;32477;51.474;5.696;2023-06-26T11:22:37;30.60;72.70
46732;DHT22;32477;51.474;5.696;2023-06-26T11:25:04;29.30;71.90
46732;DHT22;32477;51.474;5.696;2023-06-26T11:27:40;28.60;72.90
46732;DHT22;32477;51.474;5.696;2023-06-26T11:30:07;27.90;72.80
46732;DHT22;32477;51.474;5.696;2023-06-26T11:32:34;28.00;72.80
46732;DHT22;32477;51.474;5.696;2023-06-26T11:34:59;28.10;72.20
46732;DHT22;32477;51.474;5.696;2023-06-26T11:37:25;29.00;72.60
46732;DHT22;32477;51.474;5.696;2023-06-26T11:39:51;28.90;72.00
46732;DHT22;32477;51.474;5.696;2023-06-26T11:42:20;29.50;71.70
46732;DHT22;32477;51.474;5.696;2023-06-26T11:44:46;29.40;70.90
46732;DHT22;32477;51.474;5.696;2023-06-26T11:47:21;30.10;69.40
46732;DHT22;32477;51.474;5.696;2023-06-26T11:49:49;30.60;69.20
46732;DHT22;32477;51.474;5.696;2023-06-26T11:52:15;31.20;69.20
46732;DHT22;32477;51.474;5.696;2023-06-26T11:54:44;30.50;69.50
46732;DHT22;32477;51.474;5.696;2023-06-26T11:57:15;30.30;68.70
46732;DHT22;32477;51.474;5.696;2023-06-26T11:59:41;30.70;67.10
46732;DHT22;32477;51.474;5.696;2023-06-26T12:02:10;31.00;66.10
46732;DHT22;32477;51.474;5.696;2023-06-26T12:04:40;29.90;66.70
46732;DHT22;32477;51.474;5.696;2023-06-26T12:07:07;30.50;67.50
46732;DHT22;32477;51.474;5.696;2023-06-26T12:09:42;30.50;66.70
46732;DHT22;32477;51.474;5.696;2023-06-26T12:12:13;30.00;67.40
46732;DHT22;32477;51.474;5.696;2023-06-26T12:14:39;30.10;68.20
46732;DHT22;32477;51.474;5.696;2023-06-26T12:17:13;29.80;67.90
46732;DHT22;32477;51.474;5.696;2023-06-26T12:19:42;29.40;69.10
46732;DHT22;32477;51.474;5.696;2023-06-26T12:22:09;29.10;68.70
46732;DHT22;32477;51.474;5.696;2023-06-26T12:24:37;28.90;69.30
46732;DHT22;32477;51.474;5.696;2023-06-26T12:27:12;28.50;69.40
46732;DHT22;32477;51.474;5.696;2023-06-26T12:29:39;29.20;70.10
46732;DHT22;32477;51.474;5.696;2023-06-26T12:32:09;29.80;68.00
46732;DHT22;32477;51.474;5.696;2023-06-26T12:34:36;30.80;68.20
46732;DHT22;32477;51.474;5.696;2023-06-26T12:37:08;30.40;66.00
46732;DHT22;32477;51.474;5.696;2023-06-26T12:39:53;30.50;66.50
46732;DHT22;32477;51.474;5.696;2023-06-26T12:42:24;30.00;66.30
46732;DHT22;32477;51.474;5.696;2023-06-26T12:44:51;29.90;66.70
46732;DHT22;32477;51.474;5.696;2023-06-26T12:47:23;30.40;66.30
46732;DHT22;32477;51.474;5.696;2023-06-26T12:49:52;31.00;65.90
46732;DHT22;32477;51.474;5.696;2023-06-26T12:52:19;31.50;66.90
46732;DHT22;32477;51.474;5.696;2023-06-26T12:54:46;30.50;68.50
46732;DHT22;32477;51.474;5.696;2023-06-26T12:57:13;28.50;69.70
46732;DHT22;32477;51.474;5.696;2023-06-26T12:59:42;27.80;71.50
46732;DHT22;32477;51.474;5.696;2023-06-26T13:02:08;28.50;71.40
46732;DHT22;32477;51.474;5.696;2023-06-26T13:04:34;29.00;71.10
46732;DHT22;32477;51.474;5.696;2023-06-26T13:07:01;28.70;70.30
46732;DHT22;32477;51.474;5.696;2023-06-26T13:09:32;27.80;73.10
46732;DHT22;32477;51.474;5.696;2023-06-26T13:11:58;28.40;72.30
46732;DHT22;32477;51.474;5.696;2023-06-26T13:14:24;29.30;70.60
46732;DHT22;32477;51.474;5.696;2023-06-26T13:16:50;30.40;69.80
46732;DHT22;32477;51.474;5.696;2023-06-26T13:19:15;31.10;69.40
46732;DHT22;32477;51.474;5.696;2023-06-26T13:21:41;31.10;69.70
46732;DHT22;32477;51.474;5.696;2023-06-26T13:24:07;31.10;69.80
46732;DHT22;32477;51.474;5.696;2023-06-26T13:26:33;30.00;69.50
46732;DHT22;32477;51.474;5.696;2023-06-26T13:28:58;29.50;69.50
46732;DHT22;32477;51.474;5.696;2023-06-26T13:31:24;30.30;68.80
46732;DHT22;32477;51.474;5.696;2023-06-26T13:33:50;29.80;68.00
46732;DHT22;32477;51.474;5.696;2023-06-26T13:36:16;29.10;69.60
46732;DHT22;32477;51.474;5.696;2023-06-26T13:38:42;28.70;71.00
46732;DHT22;32477;51.474;5.696;2023-06-26T13:41:08;28.00;71.40
46732;DHT22;32477;51.474;5.696;2023-06-26T13:43:33;26.90;73.30
46732;DHT22;32477;51.474;5.696;2023-06-26T13:45:59;27.00;74.20
46732;DHT22;32477;51.474;5.696;2023-06-26T13:48:25;27.60;73.10
46732;DHT22;32477;51.474;5.696;2023-06-26T13:50:51;28.40;72.70
46732;DHT22;32477;51.474;5.696;2023-06-26T13:53:17;28.50;72.10
46732;DHT22;32477;51.474;5.696;2023-06-26T13:55:43;28.40;70.10
46732;DHT22;32477;51.474;5.696;2023-06-26T13:58:09;27.70;71.50
46732;DHT22;32477;51.474;5.696;2023-06-26T14:00:36;27.90;71.30
46732;DHT22;32477;51.474;5.696;2023-06-26T14:03:03;28.50;71.20
46732;DHT22;32477;51.474;5.696;2023-06-26T14:05:30;29.00;69.70
46732;DHT22;32477;51.474;5.696;2023-06-26T14:07:55;28.50;69.60
46732;DHT22;32477;51.474;5.696;2023-06-26T14:10:22;27.70;70.60
46732;DHT22;32477;51.474;5.696;2023-06-26T14:12:48;26.90;70.90
46732;DHT22;32477;51.474;5.696;2023-06-26T14:15:14;26.30;71.90
46732;DHT22;32477;51.474;5.696;2023-06-26T14:17:40;26.50;73.70
46732;DHT22;32477;51.474;5.696;2023-06-26T14:20:07;27.00;72.80
46732;DHT22;32477;51.474;5.696;2023-06-26T14:22:36;26.50;73.00
46732;DHT22;32477;51.474;5.696;2023-06-26T14:25:02;25.20;75.30
46732;DHT22;32477;51.474;5.696;2023-06-26T14:27:28;25.40;75.40
46732;DHT22;32477;51.474;5.696;2023-06-26T14:29:54;25.60;76.00
46732;DHT22;32477;51.474;5.696;2023-06-26T14:32:19;25.70;74.90
46732;DHT22;32477;51.474;5.696;2023-06-26T14:34:45;25.80;75.10
46732;DHT22;32477;51.474;5.696;2023-06-26T14:37:11;26.60;75.40
46732;DHT22;32477;51.474;5.696;2023-06-26T14:39:36;27.20;73.70
46732;DHT22;32477;51.474;5.696;2023-06-26T14:42:04;27.50;72.60
46732;DHT22;32477;51.474;5.696;2023-06-26T14:44:30;26.70;74.00
46732;DHT22;32477;51.474;5.696;2023-06-26T14:46:56;26.30;74.90
46732;DHT22;32477;51.474;5.696;2023-06-26T14:49:22;25.60;75.50
46732;DHT22;32477;51.474;5.696;2023-06-26T14:51:47;25.40;77.30
46732;DHT22;32477;51.474;5.696;2023-06-26T14:54:13;25.40;76.70
46732;DHT22;32477;51.474;5.696;2023-06-26T14:56:39;25.60;74.50
46732;DHT22;32477;51.474;5.696;2023-06-26T14:59:04;25.80;75.30
46732;DHT22;32477;51.474;5.696;2023-06-26T15:01:33;26.60;75.70
46732;DHT22;32477;51.474;5.696;2023-06-26T15:03:58;26.80;74.40
46732;DHT22;32477;51.474;5.696;2023-06-26T15:06:24;25.90;74.70
46732;DHT22;32477;51.474;5.696;2023-06-26T15:08:50;24.90;75.00
46732;DHT22;32477;51.474;5.696;2023-06-26T15:11:15;24.50;76.80
46732;DHT22;32477;51.474;5.696;2023-06-26T15:13:41;24.40;77.40
46732;DHT22;32477;51.474;5.696;2023-06-26T15:16:06;24.40;78.10
46732;DHT22;32477;51.474;5.696;2023-06-26T15:18:32;24.50;76.50
46732;DHT22;32477;51.474;5.696;2023-06-26T15:20:58;24.50;76.10
46732;DHT22;32477;51.474;5.696;2023-06-26T15:23:23;24.40;76.60
46732;DHT22;32477;51.474;5.696;2023-06-26T15:25:49;24.30;76.80
46732;DHT22;32477;51.474;5.696;2023-06-26T15:28:15;24.30;76.70
46732;DHT22;32477;51.474;5.696;2023-06-26T15:30:40;24.10;77.50
46732;DHT22;32477;51.474;5.696;2023-06-26T15:33:06;24.20;77.00
46732;DHT22;32477;51.474;5.696;2023-06-26T15:35:31;24.20;77.20
46732;DHT22;32477;51.474;5.696;2023-06-26T15:37:57;24.00;76.50
46732;DHT22;32477;51.474;5.696;2023-06-26T15:40:23;23.90;77.60